Time;durP1;ratioP1;P1;durP2;ratioP2;P2;SDS_P1;SDS_P2;PMS_P1;PMS_P2;Temp;Humidity;BMP_temperature;BMP_pressure;BME280_temperature;BME280_humidity;BME280_pressure;Samples;Min_cycle;Max_cycle;Signal;HPM_P1;HPM_P2
2022/04/15 00:00:25;;;;;;;;;;;11.10;99.90;;;;;;2063813;28;20362;-67
2022/04/15 00:01:26;;;;;;;;;;;11.00;99.90;;;;;;2062339;28;20024;-67
2022/04/15 00:02:26;;;;;;;;;;;11.00;99.90;;;;;;2062695;28;19918;-67
2022/04/15 00:03:29;;;;;;;;;;;11.00;99.90;;;;;;2064194;28;19956;-67
2022/04/15 00:04:30;;;;;;;;;;;11.00;99.90;;;;;;2060640;28;19921;-67
2022/04/15 00:05:37;;;;;;;;;;;11.00;99.90;;;;;;2061589;28;19913;-67
2022/04/15 00:06:37;;;;;;;;;;;11.00;99.90;;;;;;2062793;28;19953;-67
2022/04/15 00:07:38;;;;;;;;;;;11.00;99.90;;;;;;2061512;28;19922;-67
2022/04/15 00:08:38;;;;;;;;;;;10.90;99.90;;;;;;2060384;28;19964;-67
2022/04/15 00:09:39;;;;;;;;;;;10.90;99.90;;;;;;2064477;28;19924;-67
2022/04/15 00:10:41;;;;;;;;;;;10.90;99.90;;;;;;2063532;28;20342;-67
2022/04/15 00:11:44;;;;;;;;;;;10.90;99.90;;;;;;2061519;28;19917;-67
2022/04/15 00:12:45;;;;;;;;;;;10.80;99.90;;;;;;2060827;28;19969;-67
2022/04/15 00:13:45;;;;;;;;;;;10.90;99.90;;;;;;2064061;28;19917;-67
2022/04/15 00:14:46;;;;;;;;;;;10.80;99.90;;;;;;2061151;28;20285;-67
2022/04/15 00:15:46;;;;;;;;;;;10.80;99.90;;;;;;2063202;28;19917;-67
2022/04/15 00:16:47;;;;;;;;;;;10.80;99.90;;;;;;2064030;28;19980;-67
2022/04/15 00:17:48;;;;;;;;;;;10.80;99.90;;;;;;2063077;28;19972;-67
2022/04/15 00:18:48;;;;;;;;;;;10.70;99.90;;;;;;2062858;28;19920;-67
2022/04/15 00:19:49;;;;;;;;;;;10.70;99.90;;;;;;2064224;28;20004;-67
2022/04/15 00:20:51;;;;;;;;;;;10.70;99.90;;;;;;2060680;28;19918;-67
2022/04/15 00:21:52;;;;;;;;;;;10.70;99.90;;;;;;2063682;28;19925;-67
2022/04/15 00:22:53;;;;;;;;;;;10.70;99.90;;;;;;2060873;28;20374;-67
2022/04/15 00:23:56;;;;;;;;;;;10.70;99.90;;;;;;2063523;28;19917;-67
2022/04/15 00:24:56;;;;;;;;;;;10.70;99.90;;;;;;2060947;28;19961;-67
2022/04/15 00:25:57;;;;;;;;;;;10.70;99.90;;;;;;2063178;28;19920;-67
2022/04/15 00:26:58;;;;;;;;;;;10.60;99.90;;;;;;2061886;28;19914;-67
2022/04/15 00:27:58;;;;;;;;;;;10.60;99.90;;;;;;2064031;28;20030;-67
2022/04/15 00:28:59;;;;;;;;;;;10.60;99.90;;;;;;2064044;28;19909;-67
2022/04/15 00:29:59;;;;;;;;;;;10.60;99.90;;;;;;2062855;28;19986;-67
2022/04/15 00:31:00;;;;;;;;;;;10.60;99.90;;;;;;2061569;28;19913;-67
2022/04/15 00:32:00;;;;;;;;;;;10.60;99.90;;;;;;2062080;28;19909;-67
2022/04/15 00:33:00;;;;;;;;;;;10.50;99.90;;;;;;2063127;28;19949;-67
2022/04/15 00:34:02;;;;;;;;;;;10.50;99.90;;;;;;2060089;28;19914;-67
2022/04/15 00:35:03;;;;;;;;;;;10.50;99.90;;;;;;2063622;28;20002;-67
2022/04/15 00:36:03;;;;;;;;;;;10.50;99.90;;;;;;2059070;28;19925;-67
2022/04/15 00:37:04;;;;;;;;;;;10.50;99.90;;;;;;2061827;28;19963;-67
2022/04/15 00:38:04;;;;;;;;;;;10.50;99.90;;;;;;2062871;28;20297;-67
2022/04/15 00:39:05;;;;;;;;;;;10.40;99.90;;;;;;2064102;28;19914;-67
2022/04/15 00:40:08;;;;;;;;;;;10.40;99.90;;;;;;2067743;28;20330;-67
2022/04/15 00:41:13;;;;;;;;;;;10.40;99.90;;;;;;2067026;28;19916;-67
2022/04/15 00:42:13;;;;;;;;;;;10.40;99.90;;;;;;2061096;28;20569;-67
2022/04/15 00:43:14;;;;;;;;;;;10.40;99.90;;;;;;2057768;28;19914;-67
2022/04/15 00:44:14;;;;;;;;;;;10.40;99.90;;;;;;2061102;28;19925;-67
2022/04/15 00:45:15;;;;;;;;;;;10.40;99.90;;;;;;2061140;28;19922;-67
2022/04/15 00:46:15;;;;;;;;;;;10.30;99.90;;;;;;2063845;28;20309;-67
2022/04/15 00:47:22;;;;;;;;;;;10.30;99.90;;;;;;2063834;28;20326;-67
2022/04/15 00:48:24;;;;;;;;;;;10.30;99.90;;;;;;2060540;28;19910;-67
2022/04/15 00:49:24;;;;;;;;;;;10.30;99.90;;;;;;2061829;28;19918;-67
2022/04/15 00:50:29;;;;;;;;;;;10.30;99.90;;;;;;2063368;28;19945;-67
2022/04/15 00:51:31;;;;;;;;;;;10.30;99.90;;;;;;2060102;28;19979;-67
2022/04/15 00:52:37;;;;;;;;;;;10.30;99.90;;;;;;2063984;28;20008;-67
2022/04/15 00:53:39;;;;;;;;;;;10.20;99.90;;;;;;2062015;28;19914;-67
2022/04/15 00:54:41;;;;;;;;;;;10.20;99.90;;;;;;2060575;28;19909;-67
2022/04/15 00:55:42;;;;;;;;;;;10.20;99.90;;;;;;2062813;28;19913;-67
2022/04/15 00:56:44;;;;;;;;;;;10.20;99.90;;;;;;2063147;28;19933;-67
2022/04/15 00:57:49;;;;;;;;;;;10.20;99.90;;;;;;2063524;28;19922;-67
2022/04/15 00:58:50;;;;;;;;;;;10.10;99.90;;;;;;2064072;28;19918;-67
2022/04/15 00:59:51;;;;;;;;;;;10.10;99.90;;;;;;2060373;28;20497;-67
2022/04/15 01:00:53;;;;;;;;;;;10.10;99.90;;;;;;2060573;28;19918;-67
2022/04/15 01:01:53;;;;;;;;;;;10.10;99.90;;;;;;2063108;28;19917;-67
2022/04/15 01:02:56;;;;;;;;;;;10.10;99.90;;;;;;2060020;28;19914;-67
2022/04/15 01:03:57;;;;;;;;;;;10.10;99.90;;;;;;2063286;28;19960;-67
2022/04/15 01:04:58;;;;;;;;;;;10.10;99.90;;;;;;2063161;28;19914;-67
2022/04/15 01:05:59;;;;;;;;;;;10.00;99.90;;;;;;2061426;28;20679;-67
2022/04/15 01:07:04;;;;;;;;;;;10.00;99.90;;;;;;2061995;28;19921;-67
2022/04/15 01:08:08;;;;;;;;;;;10.00;99.90;;;;;;2069065;28;19914;-67
2022/04/15 01:09:10;;;;;;;;;;;10.00;99.90;;;;;;2072491;28;19910;-67
2022/04/15 01:10:12;;;;;;;;;;;10.00;99.90;;;;;;2065118;28;19914;-67
2022/04/15 01:11:15;;;;;;;;;;;10.00;99.90;;;;;;2063701;28;19914;-67
2022/04/15 01:12:17;;;;;;;;;;;10.00;99.90;;;;;;2062316;28;19913;-67
2022/04/15 01:13:17;;;;;;;;;;;9.90;99.90;;;;;;2058704;28;19946;-67
2022/04/15 01:14:18;;;;;;;;;;;9.90;99.90;;;;;;2061731;28;19921;-67
2022/04/15 01:15:20;;;;;;;;;;;9.90;99.90;;;;;;2060485;28;19918;-67
2022/04/15 01:16:21;;;;;;;;;;;9.90;99.90;;;;;;2063765;28;19914;-67
2022/04/15 01:17:21;;;;;;;;;;;9.90;99.90;;;;;;2062003;28;19910;-67
2022/04/15 01:18:22;;;;;;;;;;;9.90;99.90;;;;;;2063786;28;20001;-67
2022/04/15 01:19:22;;;;;;;;;;;9.90;99.90;;;;;;2070848;28;19996;-67
2022/04/15 01:20:23;;;;;;;;;;;9.80;99.90;;;;;;2069515;28;19910;-67
2022/04/15 01:21:31;;;;;;;;;;;9.80;99.90;;;;;;2057824;28;19921;-67
2022/04/15 01:22:32;;;;;;;;;;;9.80;99.90;;;;;;2061939;28;20297;-67
2022/04/15 01:23:32;;;;;;;;;;;9.80;99.90;;;;;;2057598;28;19921;-67
2022/04/15 01:24:33;;;;;;;;;;;9.80;99.90;;;;;;2063571;28;19916;-67
2022/04/15 01:25:34;;;;;;;;;;;9.80;99.90;;;;;;2061331;28;19948;-67
2022/04/15 01:26:34;;;;;;;;;;;9.80;99.90;;;;;;2057793;28;20058;-67
2022/04/15 01:27:35;;;;;;;;;;;9.80;99.90;;;;;;2061923;28;19922;-67
2022/04/15 01:28:36;;;;;;;;;;;9.70;99.90;;;;;;2061275;28;19910;-67
2022/04/15 01:29:37;;;;;;;;;;;9.70;99.90;;;;;;2063731;28;19968;-67
2022/04/15 01:30:37;;;;;;;;;;;9.70;99.90;;;;;;2061278;28;20439;-67
2022/04/15 01:31:38;;;;;;;;;;;9.70;99.90;;;;;;2064276;28;19956;-67
2022/04/15 01:32:39;;;;;;;;;;;9.70;99.90;;;;;;2060983;28;19926;-67
2022/04/15 01:33:39;;;;;;;;;;;9.60;99.90;;;;;;2063695;28;19920;-67
2022/04/15 01:34:40;;;;;;;;;;;9.60;99.90;;;;;;2059579;28;19910;-67
2022/04/15 01:35:40;;;;;;;;;;;9.60;99.90;;;;;;2063279;28;19914;-67
2022/04/15 01:36:40;;;;;;;;;;;9.60;99.90;;;;;;2061270;28;19910;-67
2022/04/15 01:37:42;;;;;;;;;;;9.60;99.90;;;;;;2066200;28;20500;-67
2022/04/15 01:38:42;;;;;;;;;;;9.60;99.90;;;;;;2059934;28;19910;-67
2022/04/15 01:39:43;;;;;;;;;;;9.50;99.90;;;;;;2061994;28;19921;-67
2022/04/15 01:40:44;;;;;;;;;;;9.50;99.90;;;;;;2062030;28;19924;-67
2022/04/15 01:41:44;;;;;;;;;;;9.50;99.90;;;;;;2061311;28;19918;-67
2022/04/15 01:42:46;;;;;;;;;;;9.50;99.90;;;;;;2063359;28;19914;-67
2022/04/15 01:43:47;;;;;;;;;;;9.50;99.90;;;;;;2063649;28;19909;-67
2022/04/15 01:44:47;;;;;;;;;;;9.50;99.90;;;;;;2059980;28;19910;-67
2022/04/15 01:45:48;;;;;;;;;;;9.50;99.90;;;;;;2063353;28;20000;-67
2022/04/15 01:46:48;;;;;;;;;;;9.40;99.90;;;;;;2061620;28;19910;-67
2022/04/15 01:47:50;;;;;;;;;;;9.40;99.90;;;;;;2063530;28;19914;-67
2022/04/15 01:48:51;;;;;;;;;;;9.40;99.90;;;;;;2060223;28;19914;-67
2022/04/15 01:49:51;;;;;;;;;;;9.40;99.90;;;;;;2063983;28;19921;-67
2022/04/15 01:50:52;;;;;;;;;;;9.40;99.90;;;;;;2062399;28;19924;-68
2022/04/15 01:51:52;;;;;;;;;;;9.40;99.90;;;;;;2061297;28;19913;-67
2022/04/15 01:52:53;;;;;;;;;;;9.40;99.90;;;;;;2059646;28;20377;-67
2022/04/15 01:53:55;;;;;;;;;;;9.30;99.90;;;;;;2063368;28;19957;-67
2022/04/15 01:54:55;;;;;;;;;;;9.30;99.90;;;;;;2061864;28;19914;-67
2022/04/15 01:55:56;;;;;;;;;;;9.30;99.90;;;;;;2064587;28;20013;-67
2022/04/15 01:56:56;;;;;;;;;;;9.30;99.90;;;;;;2061765;28;20525;-67
2022/04/15 01:57:57;;;;;;;;;;;9.30;99.90;;;;;;2064098;28;19910;-67
2022/04/15 01:58:57;;;;;;;;;;;9.30;99.90;;;;;;2064422;28;19953;-67
2022/04/15 01:59:58;;;;;;;;;;;9.30;99.90;;;;;;2061635;28;20580;-67
2022/04/15 02:00:58;;;;;;;;;;;9.30;99.90;;;;;;2064274;28;19914;-67
2022/04/15 02:01:59;;;;;;;;;;;9.20;99.90;;;;;;2063591;28;19969;-67
2022/04/15 02:02:59;;;;;;;;;;;9.20;99.90;;;;;;2064989;28;19914;-67
2022/04/15 02:03:59;;;;;;;;;;;9.20;99.90;;;;;;2064951;28;19914;-67
2022/04/15 02:05:00;;;;;;;;;;;9.20;99.90;;;;;;2065476;28;19910;-67
2022/04/15 02:06:00;;;;;;;;;;;9.20;99.90;;;;;;2062589;28;19967;-67
2022/04/15 02:07:01;;;;;;;;;;;9.20;99.90;;;;;;2065166;28;19914;-67
2022/04/15 02:08:01;;;;;;;;;;;9.10;99.90;;;;;;2064043;28;19911;-67
2022/04/15 02:09:02;;;;;;;;;;;9.10;99.90;;;;;;2066017;28;19910;-67
2022/04/15 02:10:03;;;;;;;;;;;9.10;99.90;;;;;;2064975;28;19914;-67
2022/04/15 02:11:04;;;;;;;;;;;9.10;99.90;;;;;;2064118;28;19914;-67
2022/04/15 02:12:05;;;;;;;;;;;9.10;99.90;;;;;;2063696;28;19953;-67
2022/04/15 02:13:05;;;;;;;;;;;9.10;99.90;;;;;;2063065;28;19976;-67
2022/04/15 02:14:06;;;;;;;;;;;9.10;99.90;;;;;;2062679;28;19914;-67
2022/04/15 02:15:11;;;;;;;;;;;9.10;99.90;;;;;;2058485;28;19960;-67
2022/04/15 02:16:12;;;;;;;;;;;9.10;99.90;;;;;;2064116;28;19917;-67
2022/04/15 02:17:12;;;;;;;;;;;9.10;99.90;;;;;;2064099;28;19913;-68
2022/04/15 02:18:13;;;;;;;;;;;9.00;99.90;;;;;;2064286;28;19910;-67
2022/04/15 02:19:14;;;;;;;;;;;9.00;99.90;;;;;;2064991;28;19960;-67
2022/04/15 02:20:14;;;;;;;;;;;9.00;99.90;;;;;;2062420;28;20005;-67
2022/04/15 02:21:15;;;;;;;;;;;9.00;99.90;;;;;;2064124;28;19941;-67
2022/04/15 02:22:15;;;;;;;;;;;9.00;99.90;;;;;;2064455;28;19996;-67
2022/04/15 02:23:15;;;;;;;;;;;9.00;99.90;;;;;;2064680;28;19910;-67
2022/04/15 02:24:16;;;;;;;;;;;9.00;99.90;;;;;;2061050;28;20321;-67
2022/04/15 02:25:16;;;;;;;;;;;9.00;99.90;;;;;;2058347;28;19917;-67
2022/04/15 02:26:17;;;;;;;;;;;8.90;99.90;;;;;;2062535;28;19921;-67
2022/04/15 02:27:17;;;;;;;;;;;9.00;99.90;;;;;;2062818;28;20433;-67
2022/04/15 02:28:18;;;;;;;;;;;8.90;99.90;;;;;;2061452;28;20440;-67
2022/04/15 02:29:18;;;;;;;;;;;8.90;99.90;;;;;;2060900;28;20040;-67
2022/04/15 02:30:19;;;;;;;;;;;8.90;99.90;;;;;;2064024;28;19917;-67
2022/04/15 02:31:20;;;;;;;;;;;8.90;99.90;;;;;;2060193;28;19914;-67
2022/04/15 02:32:21;;;;;;;;;;;8.90;99.90;;;;;;2064372;28;19955;-67
2022/04/15 02:33:22;;;;;;;;;;;8.90;99.90;;;;;;2064365;28;19964;-67
2022/04/15 02:34:22;;;;;;;;;;;8.90;99.90;;;;;;2064355;28;19964;-67
2022/04/15 02:35:23;;;;;;;;;;;8.90;99.90;;;;;;2061013;28;20304;-67
2022/04/15 02:36:23;;;;;;;;;;;8.80;99.90;;;;;;2064293;28;19913;-67
2022/04/15 02:37:24;;;;;;;;;;;8.80;99.90;;;;;;2061895;28;19922;-67
2022/04/15 02:38:24;;;;;;;;;;;8.80;99.90;;;;;;2061344;28;19919;-67
2022/04/15 02:39:25;;;;;;;;;;;8.80;99.90;;;;;;2064033;28;19996;-67
2022/04/15 02:40:25;;;;;;;;;;;8.80;99.90;;;;;;2065146;28;20361;-67
2022/04/15 02:41:26;;;;;;;;;;;8.80;99.90;;;;;;2061758;28;19956;-67
2022/04/15 02:42:27;;;;;;;;;;;8.80;99.90;;;;;;2062293;28;19945;-67
2022/04/15 02:43:36;;;;;;;;;;;8.70;99.90;;;;;;2061809;28;19945;-67
2022/04/15 02:44:37;;;;;;;;;;;8.80;99.90;;;;;;2064881;28;19914;-67
2022/04/15 02:45:38;;;;;;;;;;;8.70;99.90;;;;;;2061170;28;19918;-67
2022/04/15 02:46:38;;;;;;;;;;;8.70;99.90;;;;;;2063496;28;19910;-67
2022/04/15 02:47:39;;;;;;;;;;;8.70;99.90;;;;;;2062737;28;19914;-67
2022/04/15 02:48:40;;;;;;;;;;;8.70;99.90;;;;;;2063101;28;19945;-67
2022/04/15 02:49:41;;;;;;;;;;;8.70;99.90;;;;;;2064718;28;19909;-67
2022/04/15 02:50:41;;;;;;;;;;;8.70;99.90;;;;;;2064031;28;20404;-67
2022/04/15 02:51:42;;;;;;;;;;;8.70;99.90;;;;;;2062336;28;19925;-67
2022/04/15 02:52:42;;;;;;;;;;;8.70;99.90;;;;;;2064935;28;19918;-67
2022/04/15 02:53:44;;;;;;;;;;;8.70;99.90;;;;;;2061214;28;20905;-67
2022/04/15 02:54:44;;;;;;;;;;;8.70;99.90;;;;;;2061082;28;19910;-67
2022/04/15 02:55:44;;;;;;;;;;;8.60;99.90;;;;;;2063920;28;19920;-67
2022/04/15 02:56:45;;;;;;;;;;;8.60;99.90;;;;;;2060588;28;20034;-67
2022/04/15 02:57:45;;;;;;;;;;;8.60;99.90;;;;;;2059178;28;19914;-67
2022/04/15 02:58:46;;;;;;;;;;;8.60;99.90;;;;;;2062945;28;20381;-67
2022/04/15 02:59:46;;;;;;;;;;;8.60;99.90;;;;;;2061756;28;20020;-67
2022/04/15 03:00:47;;;;;;;;;;;8.60;99.90;;;;;;2061686;28;20365;-67
2022/04/15 03:01:49;;;;;;;;;;;8.60;99.90;;;;;;2061301;28;20437;-67
2022/04/15 03:02:49;;;;;;;;;;;8.60;99.90;;;;;;2061247;28;20433;-67
2022/04/15 03:03:50;;;;;;;;;;;8.60;99.90;;;;;;2063859;28;19914;-67
2022/04/15 03:04:51;;;;;;;;;;;8.60;99.90;;;;;;2065090;28;19917;-67
2022/04/15 03:05:51;;;;;;;;;;;8.50;99.90;;;;;;2063166;28;20579;-67
2022/04/15 03:06:52;;;;;;;;;;;8.50;99.90;;;;;;2063033;28;20533;-67
2022/04/15 03:07:52;;;;;;;;;;;8.50;99.90;;;;;;2061587;28;19914;-67
2022/04/15 03:08:55;;;;;;;;;;;8.50;99.90;;;;;;2064194;28;20373;-67
2022/04/15 03:09:55;;;;;;;;;;;8.50;99.90;;;;;;2065385;28;19929;-67
2022/04/15 03:10:57;;;;;;;;;;;8.50;99.90;;;;;;2062588;28;19968;-67
2022/04/15 03:11:57;;;;;;;;;;;8.40;99.90;;;;;;2061066;28;19965;-67
2022/04/15 03:12:57;;;;;;;;;;;8.40;99.90;;;;;;2062796;28;19968;-67
2022/04/15 03:13:58;;;;;;;;;;;8.50;99.90;;;;;;2062295;28;20283;-67
2022/04/15 03:14:58;;;;;;;;;;;8.40;99.90;;;;;;2064173;28;19914;-67
2022/04/15 03:15:59;;;;;;;;;;;8.40;99.90;;;;;;2060792;28;19949;-67
2022/04/15 03:17:00;;;;;;;;;;;8.40;99.90;;;;;;2063346;28;20004;-67
2022/04/15 03:18:00;;;;;;;;;;;8.40;99.90;;;;;;2062765;28;19910;-67
2022/04/15 03:19:01;;;;;;;;;;;8.40;99.90;;;;;;2061170;28;19910;-67
2022/04/15 03:20:02;;;;;;;;;;;8.40;99.90;;;;;;2064581;28;19910;-67
2022/04/15 03:21:03;;;;;;;;;;;8.40;99.90;;;;;;2064104;28;19914;-67
2022/04/15 03:22:05;;;;;;;;;;;8.40;99.90;;;;;;2062922;28;19921;-67
2022/04/15 03:23:05;;;;;;;;;;;8.30;99.90;;;;;;2064325;28;19941;-67
2022/04/15 03:24:06;;;;;;;;;;;8.30;99.90;;;;;;2065886;28;19964;-67
2022/04/15 03:25:08;;;;;;;;;;;8.30;99.90;;;;;;2064381;28;19968;-67
2022/04/15 03:26:08;;;;;;;;;;;8.30;99.90;;;;;;2060823;28;20384;-67
2022/04/15 03:27:10;;;;;;;;;;;8.30;99.90;;;;;;2063605;28;20281;-67
2022/04/15 03:28:10;;;;;;;;;;;8.30;99.90;;;;;;2065775;28;19910;-67
2022/04/15 03:29:11;;;;;;;;;;;8.30;99.90;;;;;;2065644;28;20009;-67
2022/04/15 03:30:12;;;;;;;;;;;8.30;99.90;;;;;;2065090;28;20373;-67
2022/04/15 03:31:12;;;;;;;;;;;8.30;99.90;;;;;;2063287;28;19921;-67
2022/04/15 03:32:13;;;;;;;;;;;8.30;99.90;;;;;;2062096;28;19932;-67
2022/04/15 03:33:13;;;;;;;;;;;8.30;99.90;;;;;;2064276;28;19964;-67
2022/04/15 03:34:14;;;;;;;;;;;8.30;99.90;;;;;;2063815;28;19920;-67
2022/04/15 03:35:15;;;;;;;;;;;8.30;99.90;;;;;;2060075;28;20373;-67
2022/04/15 03:36:15;;;;;;;;;;;8.30;99.90;;;;;;2063159;28;19980;-67
2022/04/15 03:37:16;;;;;;;;;;;8.20;99.90;;;;;;2062040;28;20028;-67
2022/04/15 03:38:16;;;;;;;;;;;8.30;99.90;;;;;;2064626;28;19914;-67
2022/04/15 03:39:16;;;;;;;;;;;8.20;99.90;;;;;;2062667;28;19910;-67
2022/04/15 03:40:18;;;;;;;;;;;8.20;99.90;;;;;;2061382;28;19917;-67
2022/04/15 03:41:18;;;;;;;;;;;8.30;99.90;;;;;;2060622;28;20745;-67
2022/04/15 03:42:19;;;;;;;;;;;8.30;99.90;;;;;;2063302;28;19965;-67
2022/04/15 03:43:19;;;;;;;;;;;8.30;99.90;;;;;;2058032;28;19910;-67
2022/04/15 03:44:20;;;;;;;;;;;8.30;99.90;;;;;;2064311;28;19921;-67
2022/04/15 03:45:22;;;;;;;;;;;8.30;99.90;;;;;;2060291;28;19914;-67
2022/04/15 03:46:22;;;;;;;;;;;8.30;99.90;;;;;;2063437;28;19956;-67
2022/04/15 03:47:23;;;;;;;;;;;8.30;99.90;;;;;;2064137;28;19910;-67
2022/04/15 03:48:25;;;;;;;;;;;8.30;99.90;;;;;;2060263;28;19972;-67
2022/04/15 03:49:25;;;;;;;;;;;8.30;99.90;;;;;;2064217;28;19976;-67
2022/04/15 03:50:26;;;;;;;;;;;8.30;99.90;;;;;;2064447;28;19922;-67
2022/04/15 03:51:26;;;;;;;;;;;8.20;99.90;;;;;;2060545;28;19921;-67
2022/04/15 03:52:27;;;;;;;;;;;8.20;99.90;;;;;;2064238;28;19933;-67
2022/04/15 03:53:27;;;;;;;;;;;8.20;99.90;;;;;;2062555;28;19933;-67
2022/04/15 03:54:27;;;;;;;;;;;8.20;99.90;;;;;;2064136;28;19918;-67
2022/04/15 03:55:28;;;;;;;;;;;8.20;99.90;;;;;;2063781;28;20046;-67
2022/04/15 03:56:28;;;;;;;;;;;8.20;99.90;;;;;;2060425;28;19921;-67
2022/04/15 03:57:29;;;;;;;;;;;8.20;99.90;;;;;;2060010;28;19910;-67
2022/04/15 03:58:29;;;;;;;;;;;8.20;99.90;;;;;;2064236;28;19909;-67
2022/04/15 03:59:30;;;;;;;;;;;8.10;99.90;;;;;;2063106;28;19914;-67
2022/04/15 04:00:30;;;;;;;;;;;8.10;99.90;;;;;;2063837;28;19920;-67
2022/04/15 04:01:31;;;;;;;;;;;8.00;99.90;;;;;;2064240;28;20369;-67
2022/04/15 04:02:31;;;;;;;;;;;8.00;99.90;;;;;;2063175;28;19914;-67
2022/04/15 04:03:32;;;;;;;;;;;8.00;99.90;;;;;;2061778;28;20432;-67
2022/04/15 04:04:32;;;;;;;;;;;7.90;99.90;;;;;;2063989;28;19953;-67
2022/04/15 04:05:32;;;;;;;;;;;7.90;99.90;;;;;;2063714;28;20378;-67
2022/04/15 04:06:33;;;;;;;;;;;7.90;99.90;;;;;;2063946;28;19921;-67
2022/04/15 04:07:33;;;;;;;;;;;7.90;99.90;;;;;;2064564;28;20398;-67
2022/04/15 04:08:34;;;;;;;;;;;7.90;99.90;;;;;;2063500;28;19924;-67
2022/04/15 04:09:34;;;;;;;;;;;7.90;99.90;;;;;;2061398;28;19973;-67
2022/04/15 04:10:35;;;;;;;;;;;7.90;99.90;;;;;;2062806;28;19913;-67
2022/04/15 04:11:35;;;;;;;;;;;7.90;99.90;;;;;;2062155;28;20053;-67
2022/04/15 04:12:36;;;;;;;;;;;7.90;99.90;;;;;;2061623;28;19969;-67
2022/04/15 04:13:36;;;;;;;;;;;7.90;99.90;;;;;;2063255;28;20278;-67
2022/04/15 04:14:37;;;;;;;;;;;7.90;99.90;;;;;;2062432;28;19914;-67
2022/04/15 04:15:37;;;;;;;;;;;7.80;99.90;;;;;;2063349;28;20405;-67
2022/04/15 04:16:37;;;;;;;;;;;7.80;99.90;;;;;;2061104;28;19941;-67
2022/04/15 04:17:38;;;;;;;;;;;7.80;99.90;;;;;;2059782;28;20000;-68
2022/04/15 04:18:41;;;;;;;;;;;7.80;99.90;;;;;;2062166;28;20004;-67
2022/04/15 04:19:42;;;;;;;;;;;7.80;99.90;;;;;;2062902;28;20325;-67
2022/04/15 04:20:42;;;;;;;;;;;7.80;99.90;;;;;;2061470;28;19976;-67
2022/04/15 04:21:43;;;;;;;;;;;7.80;99.90;;;;;;2059190;28;19949;-67
2022/04/15 04:22:43;;;;;;;;;;;7.80;99.90;;;;;;2061473;28;19914;-67
2022/04/15 04:23:44;;;;;;;;;;;7.80;99.90;;;;;;2058465;28;19964;-67
2022/04/15 04:24:44;;;;;;;;;;;7.70;99.90;;;;;;2060276;28;19921;-67
2022/04/15 04:25:44;;;;;;;;;;;7.80;99.90;;;;;;2059543;28;19957;-67
2022/04/15 04:26:45;;;;;;;;;;;7.70;99.90;;;;;;2059838;28;19909;-67
2022/04/15 04:27:45;;;;;;;;;;;7.70;99.90;;;;;;2062176;28;19968;-67
2022/04/15 04:28:46;;;;;;;;;;;7.70;99.90;;;;;;2059814;28;19964;-67
2022/04/15 04:29:46;;;;;;;;;;;7.70;99.90;;;;;;2059723;28;19913;-67
2022/04/15 04:30:47;;;;;;;;;;;7.70;99.90;;;;;;2060209;28;19938;-67
2022/04/15 04:31:47;;;;;;;;;;;7.70;99.90;;;;;;2058270;28;20001;-67
2022/04/15 04:32:51;;;;;;;;;;;7.70;99.90;;;;;;2060017;28;19925;-67
2022/04/15 04:33:52;;;;;;;;;;;7.70;99.90;;;;;;2070133;28;19921;-67
2022/04/15 04:34:52;;;;;;;;;;;7.70;99.90;;;;;;2070709;28;19929;-67
2022/04/15 04:35:53;;;;;;;;;;;7.70;99.90;;;;;;2060003;28;19914;-67
2022/04/15 04:36:53;;;;;;;;;;;7.70;99.90;;;;;;2059830;28;19955;-67
2022/04/15 04:37:54;;;;;;;;;;;7.70;99.90;;;;;;2058848;28;20004;-67
2022/04/15 04:38:54;;;;;;;;;;;7.70;99.90;;;;;;2060830;28;19914;-67
2022/04/15 04:39:55;;;;;;;;;;;7.70;99.90;;;;;;2058677;28;20296;-67
2022/04/15 04:40:56;;;;;;;;;;;7.70;99.90;;;;;;2061142;28;19921;-67
2022/04/15 04:41:57;;;;;;;;;;;7.70;99.90;;;;;;2060571;28;19937;-67
2022/04/15 04:42:57;;;;;;;;;;;7.70;99.90;;;;;;2060116;28;19958;-67
2022/04/15 04:43:58;;;;;;;;;;;7.70;99.90;;;;;;2058822;28;19917;-67
2022/04/15 04:44:58;;;;;;;;;;;7.70;99.90;;;;;;2059290;28;20325;-67
2022/04/15 04:45:59;;;;;;;;;;;7.70;99.90;;;;;;2060562;28;19910;-68
2022/04/15 04:46:59;;;;;;;;;;;7.70;99.90;;;;;;2059021;28;19910;-67
2022/04/15 04:48:01;;;;;;;;;;;7.70;99.90;;;;;;2059269;28;19958;-67
2022/04/15 04:49:01;;;;;;;;;;;7.80;99.90;;;;;;2057826;28;19975;-67
2022/04/15 04:50:02;;;;;;;;;;;7.80;99.90;;;;;;2061012;28;19909;-67
2022/04/15 04:51:03;;;;;;;;;;;7.80;99.90;;;;;;2057478;28;19910;-67
2022/04/15 04:52:05;;;;;;;;;;;7.90;99.90;;;;;;2060906;28;20005;-67
2022/04/15 04:53:05;;;;;;;;;;;7.90;99.90;;;;;;2060152;28;19918;-67
2022/04/15 04:54:06;;;;;;;;;;;7.90;99.90;;;;;;2060385;28;19921;-67
2022/04/15 04:55:07;;;;;;;;;;;7.90;99.90;;;;;;2059231;28;19922;-67
2022/04/15 04:56:07;;;;;;;;;;;7.90;99.90;;;;;;2057171;28;19917;-67
2022/04/15 04:57:08;;;;;;;;;;;8.00;99.90;;;;;;2056620;28;19918;-67
2022/04/15 04:58:08;;;;;;;;;;;8.00;99.90;;;;;;2062224;28;19914;-67
2022/04/15 04:59:09;;;;;;;;;;;8.10;99.90;;;;;;2061546;28;19918;-67
2022/04/15 05:00:10;;;;;;;;;;;8.10;99.90;;;;;;2059756;28;19914;-67
2022/04/15 05:01:11;;;;;;;;;;;8.10;99.90;;;;;;2057924;28;19918;-67
2022/04/15 05:02:12;;;;;;;;;;;8.10;99.90;;;;;;2058030;28;19914;-67
2022/04/15 05:03:13;;;;;;;;;;;8.20;99.90;;;;;;2062521;28;20394;-67
2022/04/15 05:04:13;;;;;;;;;;;8.20;99.90;;;;;;2062419;28;20376;-67
2022/04/15 05:05:14;;;;;;;;;;;8.20;99.90;;;;;;2062403;28;19920;-67
2022/04/15 05:06:15;;;;;;;;;;;8.30;99.90;;;;;;2064063;28;19914;-67
2022/04/15 05:07:15;;;;;;;;;;;8.30;99.90;;;;;;2062701;28;19998;-67
2022/04/15 05:08:16;;;;;;;;;;;8.30;99.90;;;;;;2063703;28;20300;-67
2022/04/15 05:09:16;;;;;;;;;;;8.30;99.90;;;;;;2063977;28;20635;-67
2022/04/15 05:10:16;;;;;;;;;;;8.40;99.90;;;;;;2059031;28;19924;-67
2022/04/15 05:11:17;;;;;;;;;;;8.40;99.90;;;;;;2063566;28;19914;-67
2022/04/15 05:12:17;;;;;;;;;;;8.40;99.90;;;;;;2061667;28;19910;-67
2022/04/15 05:13:18;;;;;;;;;;;8.50;99.90;;;;;;2061100;28;20293;-67
2022/04/15 05:14:19;;;;;;;;;;;8.50;99.90;;;;;;2063483;28;19952;-67
2022/04/15 05:15:19;;;;;;;;;;;8.50;99.90;;;;;;2062762;28;19924;-67
2022/04/15 05:16:20;;;;;;;;;;;8.50;99.90;;;;;;2063637;28;19956;-68
2022/04/15 05:17:20;;;;;;;;;;;8.60;99.90;;;;;;2062154;28;20020;-67
2022/04/15 05:18:20;;;;;;;;;;;8.60;99.90;;;;;;2062240;28;20049;-67
2022/04/15 05:19:21;;;;;;;;;;;8.60;99.90;;;;;;2063610;28;20551;-67
2022/04/15 05:20:21;;;;;;;;;;;8.70;99.90;;;;;;2057545;28;19914;-67
2022/04/15 05:21:22;;;;;;;;;;;8.70;99.90;;;;;;2062675;28;19918;-67
2022/04/15 05:22:23;;;;;;;;;;;8.70;99.90;;;;;;2060971;28;20362;-68
2022/04/15 05:23:23;;;;;;;;;;;8.70;99.90;;;;;;2059840;28;19930;-67
2022/04/15 05:24:24;;;;;;;;;;;8.70;99.90;;;;;;2062334;28;19964;-67
2022/04/15 05:25:24;;;;;;;;;;;8.80;99.90;;;;;;2062266;28;19933;-67
2022/04/15 05:26:25;;;;;;;;;;;8.80;99.90;;;;;;2063627;28;19913;-67
2022/04/15 05:27:25;;;;;;;;;;;8.80;99.90;;;;;;2061556;28;19922;-67
2022/04/15 05:28:26;;;;;;;;;;;8.80;99.90;;;;;;2061657;28;20341;-67
2022/04/15 05:29:26;;;;;;;;;;;8.80;99.90;;;;;;2061036;28;19922;-67
2022/04/15 05:30:26;;;;;;;;;;;8.80;99.90;;;;;;2064770;28;19924;-67
2022/04/15 05:31:27;;;;;;;;;;;8.90;99.90;;;;;;2066952;28;20321;-67
2022/04/15 05:32:27;;;;;;;;;;;8.80;99.90;;;;;;2065191;28;19964;-67
2022/04/15 05:33:28;;;;;;;;;;;8.90;99.90;;;;;;2065502;28;19916;-67
2022/04/15 05:34:28;;;;;;;;;;;8.90;99.90;;;;;;2064425;28;20396;-67
2022/04/15 05:35:29;;;;;;;;;;;8.90;99.90;;;;;;2063155;28;19929;-67
2022/04/15 05:36:30;;;;;;;;;;;8.90;99.90;;;;;;2062498;28;19910;-67
2022/04/15 05:37:30;;;;;;;;;;;8.90;99.90;;;;;;2065372;28;19917;-67
2022/04/15 05:38:31;;;;;;;;;;;8.90;99.90;;;;;;2065147;28;19956;-67
2022/04/15 05:39:31;;;;;;;;;;;8.90;99.90;;;;;;2065326;28;20392;-67
2022/04/15 05:40:31;;;;;;;;;;;9.00;99.90;;;;;;2064780;28;19910;-67
2022/04/15 05:41:32;;;;;;;;;;;9.00;99.90;;;;;;2065771;28;19910;-67
2022/04/15 05:42:32;;;;;;;;;;;9.00;99.90;;;;;;2062979;28;19910;-67
2022/04/15 05:43:33;;;;;;;;;;;9.00;99.90;;;;;;2064876;28;19918;-67
2022/04/15 05:44:33;;;;;;;;;;;9.00;99.90;;;;;;2065410;28;20352;-67
2022/04/15 05:45:34;;;;;;;;;;;9.00;99.90;;;;;;2062760;28;19949;-67
2022/04/15 05:46:37;;;;;;;;;;;9.10;99.90;;;;;;2061643;28;20008;-67
2022/04/15 05:47:39;;;;;;;;;;;9.10;99.90;;;;;;2063576;28;19929;-67
2022/04/15 05:48:40;;;;;;;;;;;9.10;99.90;;;;;;2059977;28;20410;-67
2022/04/15 05:49:40;;;;;;;;;;;9.10;99.90;;;;;;2059900;28;20262;-67
2022/04/15 05:50:41;;;;;;;;;;;9.10;99.90;;;;;;2061083;28;19910;-67
2022/04/15 05:51:42;;;;;;;;;;;9.20;99.90;;;;;;2060002;28;19964;-67
2022/04/15 05:52:42;;;;;;;;;;;9.10;99.90;;;;;;2062244;28;19994;-67
2022/04/15 05:53:43;;;;;;;;;;;9.20;99.90;;;;;;2062508;28;19913;-67
2022/04/15 05:54:43;;;;;;;;;;;9.20;99.90;;;;;;2060433;28;19964;-67
2022/04/15 05:55:44;;;;;;;;;;;9.20;99.90;;;;;;2060507;28;19914;-67
2022/04/15 05:56:44;;;;;;;;;;;9.20;99.90;;;;;;2059133;28;19960;-67
2022/04/15 05:57:44;;;;;;;;;;;9.20;99.90;;;;;;2060803;28;19914;-68
2022/04/15 05:58:45;;;;;;;;;;;9.30;99.90;;;;;;2061636;28;19914;-67